CST,Max TemperatureF,Mean TemperatureF,Min TemperatureF,Max Dew PointF,MeanDew PointF,Min DewpointF,Max Humidity, Mean Humidity, Min Humidity, Max Sea Level PressureIn, Mean Sea Level PressureIn, Min Sea Level PressureIn, Max VisibilityMiles, Mean VisibilityMiles, Min VisibilityMiles, Max Wind SpeedMPH, Mean Wind SpeedMPH, Max Gust SpeedMPH,PrecipitationIn, CloudCover, Events, WindDirDegrees
2013-2-1,-2,-11,-20,-8,-16,-26,85,75,65,30.27,30.14,30.05,10,10,4,15,6,,0.00,0,Snow,202
2013-2-2,6,-4,-14,1,-8,-20,85,82,77,30.19,30.09,29.97,10,8,1,16,4,,0.00,3,Snow,231
2013-2-3,6,0,-7,0,-5,-11,92,78,61,30.10,30.06,30.03,10,10,10,9,5,,0.00,1,Snow,353
2013-2-4,19,8,-2,18,2,-8,93,82,72,30.06,29.85,29.54,10,7,0,28,10,33,0.00,4,Snow,191
2013-2-5,23,12,0,21,3,-6,93,85,78,30.06,29.92,29.56,10,8,3,26,13,30,0.00,5,Snow,347
2013-2-6,19,14,8,16,12,3,93,88,79,30.14,29.99,29.90,10,8,1,15,10,18,0.00,3,Snow,107
2013-2-7,10,5,0,9,2,-4,92,89,85,30.32,30.26,30.15,10,8,1,9,5,,0.00,3,Snow,16
2013-2-8,24,14,3,19,12,1,100,85,74,30.31,30.20,30.04,10,6,0,18,5,,0.00,4,Fog-Snow,172
2013-2-9,28,24,21,28,24,18,100,95,86,30.03,29.93,29.89,10,4,1,17,9,22,0.00,2,,190
2013-2-10,28,26,24,27,26,23,100,94,86,29.89,29.73,29.58,7,2,0,25,11,32,0.02,5,Snow,47
2013-2-11,24,18,12,23,14,9,100,90,79,29.96,29.89,29.71,10,5,1,30,20,32,0.00,6,Snow,323
2013-2-12,24,17,10,21,16,9,93,88,74,29.89,29.78,29.71,10,10,7,18,12,18,0.00,3,,204
2013-2-13,26,17,8,21,16,7,100,92,80,29.78,29.67,29.61,10,8,0,12,5,,0.00,2,Fog,284
2013-2-14,19,10,0,16,4,-4,92,84,78,30.26,30.08,29.79,10,10,7,18,11,,0.00,3,Snow,346
2013-2-15,10,0,-9,5,-5,-15,92,83,77,30.38,30.31,30.21,10,9,2,8,3,,0.00,1,Snow,208
2013-2-16,17,4,-9,16,2,-13,93,85,73,30.22,30.08,29.94,10,8,0,22,7,26,0.00,5,Fog-Snow,168
2013-2-17,30,24,17,28,23,14,100,93,86,29.93,29.65,29.50,10,5,1,30,23,36,0.00,6,Snow,194
2013-2-18,30,14,-4,28,6,-8,100,90,78,30.12,29.80,29.49,7,1,0,44,24,55,0.03,8,Snow,343
2013-2-19,-4,-10,-16,-9,-16,-22,84,78,70,30.50,30.35,30.12,10,4,0,34,24,40,0.00,0,Snow,351
2013-2-20,8,-6,-20,-2,-13,-26,84,69,56,30.51,30.45,30.37,10,10,10,13,5,,0.00,0,,89
2013-2-21,19,10,0,7,0,-9,73,65,58,30.42,30.34,30.20,10,10,10,13,6,,0.00,0,,108
2013-2-22,17,12,6,16,8,0,100,83,62,30.19,30.03,29.92,10,10,5,10,6,,0.00,1,Snow,17
2013-2-23,19,16,14,18,15,12,100,93,86,29.95,29.90,29.87,10,6,0,9,3,,0.00,7,Fog,183
2013-2-24,21,14,8,19,13,7,100,90,79,30.04,30.01,29.96,10,6,0,15,5,,0.00,3,Fog-Snow,183
2013-2-25,24,12,1,21,14,0,100,90,80,30.06,30.03,29.99,10,6,1,21,9,,0.00,1,Snow,190
2013-2-26,21,16,10,19,17,9,100,95,92,30.10,30.05,29.99,3,1,0,13,5,,0.00,8,Fog,189
2013-2-27,26,16,6,25,14,5,100,92,85,30.21,30.14,30.09,10,6,0,22,4,,0.00,4,Fog-Snow,356
2013-2-28,24,20,17,21,17,12,93,83,69,30.33,30.28,30.21,10,10,10,14,9,,0.00,3,,15